createdAt,value
2023-05-12T00:02:13.650Z,60.94
2023-05-12T00:07:20.558Z,60.70
2023-05-12T00:12:28.754Z,59.33
2023-05-12T00:17:35.273Z,61.04
2023-05-12T00:22:43.229Z,59.21
2023-05-12T00:27:51.079Z,58.21
2023-05-12T00:32:57.766Z,58.29
2023-05-12T00:38:04.380Z,60.39
2023-05-12T00:43:12.404Z,58.95
2023-05-12T00:48:18.839Z,58.83
2023-05-12T00:53:32.551Z,58.03
2023-05-12T00:58:47.449Z,60.08
2023-05-12T01:03:55.561Z,61.99
2023-05-12T01:09:02.420Z,61.02
2023-05-12T01:14:10.392Z,60.29
2023-05-12T01:19:34.877Z,61.37
2023-05-12T01:24:51.892Z,62.72
2023-05-12T01:30:03.565Z,63.00
2023-05-12T01:35:16.036Z,63.31
2023-05-12T01:40:28.300Z,64.29
2023-05-12T01:45:39.093Z,63.82
2023-05-12T01:50:45.821Z,63.79
2023-05-12T01:55:58.210Z,63.97
2023-05-12T02:01:07.912Z,64.14
2023-05-12T02:06:15.303Z,64.79
2023-05-12T02:11:24.978Z,65.77
2023-05-12T02:16:32.961Z,64.86
2023-05-12T02:21:40.279Z,64.74
2023-05-12T02:26:46.667Z,65.52
2023-05-12T02:31:55.157Z,65.87
2023-05-12T02:37:01.771Z,66.69
2023-05-12T02:42:09.441Z,66.80
2023-05-12T02:47:17.654Z,67.40
2023-05-12T02:52:25.758Z,66.81
2023-05-12T02:57:34.379Z,66.82
2023-05-12T03:02:43.442Z,66.39
2023-05-12T03:07:51.948Z,67.02
2023-05-12T03:13:02.090Z,66.72
2023-05-12T03:18:09.955Z,66.56
2023-05-12T03:23:17.197Z,65.91
2023-05-12T03:28:25.106Z,66.07
2023-05-12T03:33:33.280Z,67.31
2023-05-12T03:38:39.784Z,67.48
2023-05-12T03:43:46.375Z,67.79
2023-05-12T03:48:54.927Z,65.13
2023-05-12T03:54:01.149Z,64.74
2023-05-12T03:59:07.890Z,62.87
2023-05-12T04:04:18.888Z,61.70
2023-05-12T04:09:25.412Z,60.46
2023-05-12T04:14:42.203Z,61.14
2023-05-12T04:19:52.976Z,61.29
2023-05-12T04:24:59.785Z,59.54
2023-05-12T04:30:07.951Z,59.96
2023-05-12T04:35:18.198Z,58.54
2023-05-12T04:40:26.615Z,57.74
2023-05-12T04:45:33.299Z,56.98
2023-05-12T04:50:41.842Z,56.16
2023-05-12T04:55:50.400Z,54.88
2023-05-12T05:00:57.374Z,54.77
2023-05-12T05:06:05.592Z,54.19
2023-05-12T05:11:12.518Z,53.43
2023-05-12T05:16:19.269Z,53.36
2023-05-12T05:21:29.129Z,52.54
2023-05-12T05:26:36.071Z,51.96
2023-05-12T05:31:42.982Z,51.88
2023-05-12T05:36:52.145Z,50.90
2023-05-12T05:41:59.024Z,51.04
2023-05-12T05:47:06.421Z,52.00
2023-05-12T05:52:15.526Z,51.05
2023-05-12T05:57:23.364Z,50.92
2023-05-12T06:02:30.577Z,51.08
2023-05-12T06:07:39.781Z,51.63
2023-05-12T06:12:46.362Z,50.54
2023-05-12T06:17:52.929Z,49.85
2023-05-12T06:23:02.017Z,49.82
2023-05-12T06:28:08.895Z,49.29
2023-05-12T06:33:15.343Z,49.41
2023-05-12T06:38:23.222Z,47.75
2023-05-12T06:43:30.001Z,48.04
2023-05-12T06:48:36.713Z,46.69
2023-05-12T06:53:45.239Z,46.90
2023-05-12T06:58:52.900Z,46.10
2023-05-12T07:04:01.263Z,45.41
2023-05-12T07:09:09.463Z,44.52
2023-05-12T07:14:15.913Z,43.39
2023-05-12T07:19:23.476Z,43.10
2023-05-12T07:24:35.528Z,42.80
2023-05-12T07:29:41.878Z,42.31
2023-05-12T07:34:48.063Z,41.70
2023-05-12T07:39:56.111Z,41.57
2023-05-12T07:45:03.988Z,39.70
2023-05-12T07:50:12.392Z,39.43
2023-05-12T07:55:22.319Z,36.14
2023-05-12T08:00:29.177Z,36.96
2023-05-12T08:05:36.013Z,35.62
2023-05-12T08:10:43.828Z,36.02
2023-05-12T08:15:52.097Z,36.48
2023-05-12T08:20:58.754Z,36.33
2023-05-12T08:26:07.027Z,35.20
2023-05-12T08:31:13.733Z,34.00
2023-05-12T08:36:20.208Z,32.34
2023-05-12T08:41:41.952Z,33.70
2023-05-12T08:46:49.648Z,34.40
2023-05-12T08:51:58.635Z,34.42
2023-05-12T08:57:10.466Z,34.07
2023-05-12T09:02:19.208Z,34.48
2023-05-12T09:07:27.081Z,33.80
2023-05-12T09:12:39.394Z,32.10
2023-05-12T09:17:45.973Z,30.28
2023-05-12T09:22:52.616Z,31.54
2023-05-12T09:28:00.498Z,29.98
2023-05-12T09:33:10.560Z,29.59
2023-05-12T09:38:17.299Z,31.10
2023-05-12T09:43:25.473Z,31.76
2023-05-12T09:48:32.994Z,30.58
2023-05-12T09:53:45.189Z,29.39
2023-05-12T09:58:53.090Z,29.12
2023-05-12T10:04:01.331Z,29.25
2023-05-12T10:09:17.830Z,29.55
2023-05-12T10:14:26.649Z,29.15
2023-05-12T10:19:34.488Z,28.54
2023-05-12T10:24:43.574Z,28.53
2023-05-12T10:29:53.630Z,28.92
2023-05-12T10:35:10.817Z,28.33
2023-05-12T10:40:27.152Z,28.28
2023-05-12T10:45:39.528Z,28.38
2023-05-12T10:50:55.769Z,28.59
2023-05-12T10:56:06.960Z,28.87
2023-05-12T11:01:16.808Z,30.05
2023-05-12T11:06:24.262Z,28.24
2023-05-12T11:11:32.132Z,27.30
2023-05-12T11:16:49.846Z,27.36
2023-05-12T11:21:57.067Z,27.26
2023-05-12T11:27:04.476Z,28.33
2023-05-12T11:32:15.314Z,27.77
2023-05-12T11:37:21.748Z,26.68
2023-05-12T11:42:28.180Z,26.60
2023-05-12T11:47:36.337Z,27.11
2023-05-12T11:52:43.195Z,29.11
2023-05-12T11:58:02.461Z,27.08
2023-05-12T12:03:16.144Z,26.40
2023-05-12T12:08:22.917Z,26.17
2023-05-12T12:13:30.933Z,27.69
2023-05-12T12:18:38.940Z,26.50
2023-05-12T12:23:51.233Z,26.85
2023-05-12T12:28:58.354Z,26.45
2023-05-12T12:34:06.796Z,25.87
2023-05-12T12:39:13.903Z,25.99
2023-05-12T12:44:23.186Z,25.92
2023-05-12T12:49:31.076Z,25.74
2023-05-12T12:54:37.940Z,25.47
2023-05-12T12:59:44.401Z,25.83
2023-05-12T13:04:52.558Z,26.31
2023-05-12T13:09:59.615Z,26.74
2023-05-12T13:15:07.661Z,25.36
2023-05-12T13:20:16.382Z,26.25
2023-05-12T13:25:22.987Z,26.06
2023-05-12T13:30:29.764Z,25.82
2023-05-12T13:35:37.661Z,25.46
2023-05-12T13:40:44.060Z,25.89
2023-05-12T13:45:50.941Z,25.76
2023-05-12T13:50:58.969Z,26.05
2023-05-12T13:56:06.089Z,25.77
2023-05-12T14:01:12.968Z,25.71
2023-05-12T14:06:20.711Z,25.23
2023-05-12T14:11:27.279Z,25.60
2023-05-12T14:16:33.751Z,25.26
2023-05-12T14:21:42.330Z,25.98
2023-05-12T14:26:48.789Z,25.96
2023-05-12T14:31:55.656Z,27.85
2023-05-12T14:37:03.802Z,25.35
2023-05-12T14:42:10.463Z,24.78
2023-05-12T14:47:17.125Z,24.74
2023-05-12T14:52:26.903Z,24.93
2023-05-12T14:57:36.062Z,26.17
2023-05-12T15:02:45.093Z,25.73
2023-05-12T15:07:53.018Z,26.50
2023-05-12T15:12:59.538Z,26.27
2023-05-12T15:18:06.102Z,26.88
2023-05-12T15:23:13.924Z,25.22
2023-05-12T15:28:22.037Z,25.80
2023-05-12T15:33:29.858Z,26.52
2023-05-12T15:38:38.477Z,26.53
2023-05-12T15:43:45.134Z,25.74
2023-05-12T15:48:53.741Z,25.32
2023-05-12T15:54:03.072Z,26.12
2023-05-12T15:59:10.207Z,27.88
2023-05-12T16:04:17.691Z,28.30
2023-05-12T16:09:26.902Z,29.41
2023-05-12T16:14:33.497Z,27.49
2023-05-12T16:19:40.119Z,27.90
2023-05-12T16:24:49.096Z,28.02
2023-05-12T16:29:55.889Z,27.99
2023-05-12T16:35:02.600Z,27.59
2023-05-12T16:40:13.247Z,27.54
2023-05-12T16:45:21.712Z,27.44
2023-05-12T16:50:28.529Z,26.72
2023-05-12T16:55:36.552Z,28.14
2023-05-12T17:00:43.313Z,26.94
2023-05-12T17:05:52.079Z,27.99
2023-05-12T17:11:00.019Z,28.04
2023-05-12T17:16:08.227Z,28.63
2023-05-12T17:21:14.563Z,27.44
2023-05-12T17:26:22.894Z,27.60
2023-05-12T17:31:29.447Z,28.12
2023-05-12T17:36:36.447Z,29.25
2023-05-12T17:41:44.478Z,30.80
2023-05-12T17:46:51.275Z,32.17
2023-05-12T17:51:58.130Z,33.34
2023-05-12T17:57:07.885Z,34.54
2023-05-12T18:02:14.979Z,34.45
2023-05-12T18:07:22.798Z,34.27
2023-05-12T18:12:33.328Z,34.84
2023-05-12T18:17:40.467Z,35.72
2023-05-12T18:22:47.602Z,37.12
2023-05-12T18:27:56.002Z,37.84
2023-05-12T18:33:02.701Z,37.79
2023-05-12T18:38:09.561Z,38.18
2023-05-12T18:43:18.137Z,39.33
2023-05-12T18:48:25.097Z,39.68
2023-05-12T18:53:32.180Z,40.73
2023-05-12T18:58:41.998Z,42.66
2023-05-12T19:03:49.052Z,42.66
2023-05-12T19:08:56.624Z,43.27
2023-05-12T19:14:05.927Z,44.91
2023-05-12T19:19:13.536Z,45.34
2023-05-12T19:24:20.726Z,46.01
2023-05-12T19:29:29.013Z,46.51
2023-05-12T19:34:37.271Z,48.31
2023-05-12T19:39:44.200Z,49.06
2023-05-12T19:44:53.481Z,48.65
2023-05-12T19:50:00.297Z,50.58
2023-05-12T19:55:08.831Z,49.80
2023-05-12T20:00:19.266Z,50.23
2023-05-12T20:05:27.869Z,50.51
2023-05-12T20:10:34.885Z,51.49
2023-05-12T20:15:44.514Z,53.45
2023-05-12T20:20:52.031Z,53.95
2023-05-12T20:25:59.154Z,55.20
2023-05-12T20:31:08.907Z,55.84
2023-05-12T20:36:16.177Z,55.12
2023-05-12T20:41:23.514Z,55.72
2023-05-12T20:46:31.926Z,56.08
2023-05-12T20:51:40.241Z,56.67
2023-05-12T20:56:47.322Z,57.01
2023-05-12T21:01:55.723Z,58.45
2023-05-12T21:07:02.781Z,58.39
2023-05-12T21:12:10.918Z,58.65
2023-05-12T21:17:20.030Z,60.25
2023-05-12T21:22:28.101Z,61.23
2023-05-12T21:27:36.677Z,60.92
2023-05-12T21:32:45.166Z,59.26
2023-05-12T21:37:52.044Z,60.34
2023-05-12T21:42:58.935Z,62.02
2023-05-12T21:48:07.883Z,61.84
2023-05-12T21:53:15.208Z,61.46
2023-05-12T21:58:23.927Z,62.59
2023-05-12T22:03:32.477Z,62.25
2023-05-12T22:08:39.479Z,62.22
2023-05-12T22:13:46.142Z,63.02
2023-05-12T22:18:54.577Z,62.94
2023-05-12T22:24:01.572Z,64.01
2023-05-12T22:29:08.539Z,64.51
2023-05-12T22:34:16.725Z,65.22
2023-05-12T22:39:23.967Z,65.13
2023-05-12T22:44:31.188Z,65.93
2023-05-12T22:49:39.414Z,66.64
2023-05-12T22:54:45.939Z,66.85
2023-05-12T22:59:53.351Z,66.99
2023-05-12T23:05:01.903Z,67.74
2023-05-12T23:10:11.564Z,68.13
2023-05-12T23:15:18.468Z,68.27
2023-05-12T23:20:26.942Z,68.42
2023-05-12T23:25:35.559Z,69.46
2023-05-12T23:30:42.462Z,70.00
2023-05-12T23:35:50.611Z,70.24
2023-05-12T23:40:57.006Z,69.22
2023-05-12T23:46:03.736Z,70.77
2023-05-12T23:51:11.843Z,70.78
2023-05-12T23:56:18.341Z,71.44
